createdAt,value
2024-05-09T00:01:44.048Z,16.98
2024-05-09T00:05:06.007Z,16.98
2024-05-09T00:08:32.747Z,17.01
2024-05-09T00:11:54.699Z,17.03
2024-05-09T00:15:16.461Z,17.01
2024-05-09T00:18:38.466Z,17.00
2024-05-09T00:22:00.673Z,16.92
2024-05-09T00:25:22.642Z,17.00
2024-05-09T00:28:44.387Z,17.03
2024-05-09T00:32:06.848Z,17.07
2024-05-09T00:35:30.975Z,17.15
2024-05-09T00:38:52.833Z,17.10
2024-05-09T00:42:17.524Z,17.04
2024-05-09T00:45:42.158Z,16.97
2024-05-09T00:49:06.178Z,16.94
2024-05-09T00:52:30.389Z,16.90
2024-05-09T00:56:01.715Z,16.80
2024-05-09T00:59:26.210Z,16.81
2024-05-09T01:02:48.214Z,16.76
2024-05-09T01:06:10.099Z,16.74
2024-05-09T01:09:31.852Z,16.73
2024-05-09T01:12:53.618Z,16.73
2024-05-09T01:16:15.561Z,16.76
2024-05-09T01:19:40.127Z,16.63
2024-05-09T01:23:09.416Z,16.69
2024-05-09T01:26:34.612Z,16.59
2024-05-09T01:29:58.430Z,16.64
2024-05-09T01:33:22.746Z,16.67
2024-05-09T01:36:44.553Z,16.69
2024-05-09T01:40:15.288Z,16.67
2024-05-09T01:43:42.796Z,16.64
2024-05-09T01:47:07.955Z,16.64
2024-05-09T01:50:37.994Z,16.59
2024-05-09T01:54:03.102Z,16.60
2024-05-09T01:57:27.682Z,16.63
2024-05-09T02:00:54.416Z,16.61
2024-05-09T02:04:16.436Z,16.60
2024-05-09T02:07:40.621Z,16.59
2024-05-09T02:11:02.483Z,16.57
2024-05-09T02:14:26.556Z,16.53
2024-05-09T02:17:50.881Z,16.39
2024-05-09T02:21:12.867Z,16.42
2024-05-09T02:24:34.580Z,16.42
2024-05-09T02:27:56.483Z,16.40
2024-05-09T02:31:18.236Z,16.39
2024-05-09T02:34:42.368Z,16.23
2024-05-09T02:38:04.575Z,16.29
2024-05-09T02:41:27.153Z,16.19
2024-05-09T02:44:51.353Z,16.21
2024-05-09T02:48:18.749Z,16.18
2024-05-09T02:51:40.527Z,16.22
2024-05-09T02:55:02.281Z,16.26
2024-05-09T02:58:24.003Z,16.25
2024-05-09T03:01:45.874Z,16.22
2024-05-09T03:05:10.874Z,16.23
2024-05-09T03:08:35.228Z,16.08
2024-05-09T03:11:57.142Z,16.02
2024-05-09T03:15:18.987Z,16.02
2024-05-09T03:18:44.329Z,16.05
2024-05-09T03:22:06.313Z,15.97
2024-05-09T03:25:30.176Z,16.05
2024-05-09T03:28:51.995Z,15.90
2024-05-09T03:32:13.812Z,15.78
2024-05-09T03:35:35.693Z,15.81
2024-05-09T03:38:57.436Z,15.90
2024-05-09T03:42:19.200Z,15.97
2024-05-09T03:45:41.942Z,16.05
2024-05-09T03:49:04.364Z,16.08
2024-05-09T03:52:26.115Z,16.12
2024-05-09T03:55:47.946Z,16.06
2024-05-09T03:59:09.736Z,16.01
2024-05-09T04:02:31.589Z,16.01
2024-05-09T04:05:56.395Z,15.98
2024-05-09T04:09:20.473Z,15.84
2024-05-09T04:12:42.183Z,15.78
2024-05-09T04:16:09.648Z,15.78
2024-05-09T04:19:33.639Z,15.85
2024-05-09T04:22:55.614Z,15.81
2024-05-09T04:26:17.449Z,15.71
2024-05-09T04:29:40.429Z,15.73
2024-05-09T04:33:02.783Z,15.87
2024-05-09T04:36:24.720Z,15.90
2024-05-09T04:39:46.455Z,15.91
2024-05-09T04:43:17.434Z,15.98
2024-05-09T04:46:42.292Z,16.05
2024-05-09T04:50:08.857Z,16.08
2024-05-09T04:53:33.316Z,16.16
2024-05-09T04:56:55.166Z,16.16
2024-05-09T05:00:28.483Z,16.18
2024-05-09T05:03:57.075Z,16.30
2024-05-09T05:07:18.991Z,16.43
2024-05-09T05:10:41.384Z,16.59
2024-05-09T05:14:07.676Z,16.56
2024-05-09T05:17:29.507Z,16.53
2024-05-09T05:20:51.696Z,16.53
2024-05-09T05:24:13.752Z,16.57
2024-05-09T05:27:38.510Z,16.63
2024-05-09T05:31:02.738Z,16.70
2024-05-09T05:34:24.730Z,16.67
2024-05-09T05:37:51.391Z,16.57
2024-05-09T05:41:13.142Z,16.52
2024-05-09T05:44:34.938Z,16.46
2024-05-09T05:48:00.000Z,16.57
2024-05-09T05:51:22.459Z,16.56
2024-05-09T05:54:44.296Z,16.60
2024-05-09T05:58:09.120Z,16.66
2024-05-09T06:01:33.093Z,16.56
2024-05-09T06:04:55.064Z,16.64
2024-05-09T06:08:19.159Z,16.66
2024-05-09T06:11:41.950Z,16.61
2024-05-09T06:15:03.971Z,16.70
2024-05-09T06:18:26.024Z,16.79
2024-05-09T06:21:47.961Z,16.81
2024-05-09T06:25:09.884Z,16.71
2024-05-09T06:28:34.090Z,16.77
2024-05-09T06:32:00.269Z,17.00
2024-05-09T06:35:22.340Z,17.01
2024-05-09T06:38:44.221Z,17.07
2024-05-09T06:42:05.982Z,17.08
2024-05-09T06:45:27.778Z,17.36
2024-05-09T06:48:49.854Z,17.75
2024-05-09T06:52:12.058Z,17.86
2024-05-09T06:55:33.824Z,18.30
2024-05-09T06:58:58.363Z,18.48
2024-05-09T07:02:20.204Z,18.77
2024-05-09T07:05:42.315Z,18.96
2024-05-09T07:09:04.306Z,19.18
2024-05-09T07:12:26.174Z,19.44
2024-05-09T07:15:47.976Z,19.45
2024-05-09T07:19:09.998Z,19.65
2024-05-09T07:22:31.781Z,19.81
2024-05-09T07:25:53.783Z,20.02
2024-05-09T07:29:15.601Z,20.54
2024-05-09T07:32:37.923Z,21.05
2024-05-09T07:36:02.159Z,21.09
2024-05-09T07:39:24.698Z,21.00
2024-05-09T07:42:46.491Z,21.61
2024-05-09T07:47:13.910Z,21.88
2024-05-09T07:51:32.782Z,22.35
2024-05-09T07:53:41.669Z,22.60
2024-05-09T07:57:07.001Z,22.59
2024-05-09T08:00:31.550Z,22.38
2024-05-09T08:03:54.710Z,21.90
2024-05-09T08:07:17.853Z,22.06
2024-05-09T08:10:39.696Z,21.70
2024-05-09T08:14:01.516Z,22.18
2024-05-09T08:17:23.350Z,21.97
2024-05-09T08:20:48.554Z,22.73
2024-05-09T08:24:10.599Z,22.55
2024-05-09T08:27:32.672Z,22.70
2024-05-09T08:30:54.577Z,22.96
2024-05-09T08:34:16.711Z,22.84
2024-05-09T08:37:40.578Z,22.81
2024-05-09T08:41:04.029Z,22.77
2024-05-09T08:44:30.051Z,23.55
2024-05-09T08:47:52.556Z,23.69
2024-05-09T08:51:14.661Z,22.93
2024-05-09T08:54:36.946Z,23.29
2024-05-09T08:58:00.985Z,23.96
2024-05-09T09:01:23.777Z,24.20
2024-05-09T09:05:00.213Z,23.90
2024-05-09T09:08:22.943Z,24.45
2024-05-09T09:11:44.729Z,24.49
2024-05-09T09:15:06.806Z,24.72
2024-05-09T09:18:30.329Z,24.51
2024-05-09T09:21:52.506Z,24.49
2024-05-09T09:25:14.360Z,24.49
2024-05-09T09:28:41.656Z,25.13
2024-05-09T09:32:05.392Z,24.96
2024-05-09T09:35:29.009Z,25.30
2024-05-09T09:38:54.523Z,24.79
2024-05-09T09:42:17.760Z,24.80
2024-05-09T09:45:44.768Z,25.03
2024-05-09T09:49:07.459Z,25.06
2024-05-09T09:52:31.809Z,24.42
2024-05-09T09:55:57.809Z,24.27
2024-05-09T09:59:22.117Z,24.69
2024-05-09T10:02:44.004Z,25.20
2024-05-09T10:06:07.273Z,25.60
2024-05-09T10:09:30.718Z,25.35
2024-05-09T10:13:09.660Z,25.38
2024-05-09T10:16:32.031Z,25.53
2024-05-09T10:20:14.365Z,26.37
2024-05-09T10:23:48.138Z,26.80
2024-05-09T10:27:12.434Z,26.63
2024-05-09T10:30:36.314Z,26.65
2024-05-09T10:34:03.664Z,26.98
2024-05-09T10:37:31.222Z,26.25
2024-05-09T10:40:56.954Z,25.45
2024-05-09T10:44:18.830Z,25.96
2024-05-09T10:47:42.247Z,26.46
2024-05-09T10:51:04.633Z,26.84
2024-05-09T10:54:35.662Z,26.95
2024-05-09T10:57:57.970Z,26.68
2024-05-09T11:01:19.894Z,27.02
2024-05-09T11:04:45.292Z,27.06
2024-05-09T11:08:10.285Z,27.05
2024-05-09T11:11:32.184Z,27.12
2024-05-09T11:14:54.775Z,26.44
2024-05-09T11:18:25.624Z,26.81
2024-05-09T11:21:51.872Z,26.91
2024-05-09T11:25:13.755Z,26.51
2024-05-09T11:28:37.855Z,26.84
2024-05-09T11:32:04.655Z,27.11
2024-05-09T11:35:29.447Z,26.54
2024-05-09T11:38:51.353Z,26.99
2024-05-09T11:42:15.518Z,27.05
2024-05-09T11:45:37.348Z,27.29
2024-05-09T11:48:59.329Z,27.16
2024-05-09T11:52:21.248Z,27.22
2024-05-09T11:55:45.755Z,27.09
2024-05-09T11:59:08.067Z,26.88
2024-05-09T12:02:29.942Z,26.56
2024-05-09T12:05:51.916Z,26.68
2024-05-09T12:09:16.498Z,25.71
2024-05-09T12:12:38.291Z,25.45
2024-05-09T12:16:00.170Z,25.33
2024-05-09T12:19:22.076Z,25.44
2024-05-09T12:22:43.886Z,25.61
2024-05-09T12:26:05.640Z,25.84
2024-05-09T12:29:28.196Z,25.81
2024-05-09T12:32:50.317Z,25.78
2024-05-09T12:36:12.186Z,25.81
2024-05-09T12:39:34.008Z,25.55
2024-05-09T12:42:58.324Z,25.50
2024-05-09T12:46:23.452Z,25.75
2024-05-09T12:49:47.969Z,25.43
2024-05-09T12:53:09.941Z,25.61
2024-05-09T12:56:33.498Z,25.75
2024-05-09T12:59:55.903Z,25.50
2024-05-09T13:03:17.715Z,25.51
2024-05-09T13:06:39.629Z,25.64
2024-05-09T13:10:01.492Z,25.70
2024-05-09T13:13:23.426Z,25.86
2024-05-09T13:16:45.332Z,25.84
2024-05-09T13:20:11.986Z,25.75
2024-05-09T13:23:45.048Z,25.70
2024-05-09T13:27:06.843Z,25.82
2024-05-09T13:30:37.370Z,25.78
2024-05-09T13:34:02.382Z,25.71
2024-05-09T13:37:24.651Z,25.77
2024-05-09T13:40:46.997Z,25.74
2024-05-09T13:44:11.697Z,25.78
2024-05-09T13:47:33.675Z,25.86
2024-05-09T13:50:55.706Z,25.77
2024-05-09T13:54:20.045Z,25.57
2024-05-09T13:57:43.663Z,25.60
2024-05-09T14:01:08.269Z,25.67
2024-05-09T14:04:30.323Z,25.60
2024-05-09T14:07:52.376Z,25.55
2024-05-09T14:11:14.263Z,25.53
2024-05-09T14:14:36.032Z,25.45
2024-05-09T14:17:59.974Z,25.51
2024-05-09T14:21:24.498Z,25.54
2024-05-09T14:24:46.244Z,25.50
2024-05-09T14:28:08.236Z,25.35
2024-05-09T14:31:32.980Z,25.60
2024-05-09T14:34:55.735Z,25.47
2024-05-09T14:38:17.502Z,25.53
2024-05-09T14:41:40.706Z,25.54
2024-05-09T14:45:02.743Z,25.47
2024-05-09T14:48:24.595Z,25.30
2024-05-09T14:51:48.274Z,25.12
2024-05-09T14:55:12.250Z,25.12
2024-05-09T14:58:34.275Z,25.20
2024-05-09T15:01:56.475Z,25.27
2024-05-09T15:05:18.407Z,25.16
2024-05-09T15:08:40.558Z,25.02
2024-05-09T15:12:03.010Z,24.89
2024-05-09T15:15:24.792Z,24.76
2024-05-09T15:18:49.289Z,24.58
2024-05-09T15:22:16.286Z,24.44
2024-05-09T15:25:40.403Z,24.41
2024-05-09T15:29:02.322Z,24.44
2024-05-09T15:32:24.200Z,24.52
2024-05-09T15:35:48.815Z,24.45
2024-05-09T15:39:10.582Z,24.30
2024-05-09T15:42:32.403Z,24.13
2024-05-09T15:45:56.906Z,24.04
2024-05-09T15:49:19.437Z,24.06
2024-05-09T15:52:41.299Z,24.07
2024-05-09T15:56:03.083Z,23.92
2024-05-09T15:59:24.894Z,23.80
2024-05-09T16:02:47.245Z,23.79
2024-05-09T16:06:14.335Z,23.76
2024-05-09T16:09:38.633Z,23.70
2024-05-09T16:13:03.691Z,23.56
2024-05-09T16:16:26.012Z,23.58
2024-05-09T16:19:47.828Z,23.45
2024-05-09T16:23:10.315Z,23.34
2024-05-09T16:26:34.563Z,23.31
2024-05-09T16:30:04.060Z,23.32
2024-05-09T16:33:28.748Z,23.27
2024-05-09T16:36:53.056Z,23.19
2024-05-09T16:40:22.180Z,23.17
2024-05-09T16:43:52.147Z,23.12
2024-05-09T16:47:14.085Z,23.14
2024-05-09T16:50:36.724Z,23.04
2024-05-09T16:53:58.685Z,22.96
2024-05-09T16:57:20.505Z,22.79
2024-05-09T17:00:47.678Z,22.87
2024-05-09T17:04:10.000Z,22.80
2024-05-09T17:07:32.481Z,22.76
2024-05-09T17:10:56.702Z,22.71
2024-05-09T17:14:18.608Z,22.63
2024-05-09T17:17:40.676Z,22.56
2024-05-09T17:21:02.474Z,22.49
2024-05-09T17:24:26.704Z,22.43
2024-05-09T17:27:48.539Z,22.39
2024-05-09T17:31:11.068Z,22.29
2024-05-09T17:34:34.976Z,22.23
2024-05-09T17:37:58.329Z,22.21
2024-05-09T17:41:20.070Z,22.15
2024-05-09T17:44:44.425Z,22.06
2024-05-09T17:48:07.036Z,22.02
2024-05-09T17:51:31.405Z,21.94
2024-05-09T17:54:53.282Z,21.85
2024-05-09T17:58:15.415Z,21.78
2024-05-09T18:01:39.600Z,21.67
2024-05-09T18:05:04.534Z,21.57
2024-05-09T18:08:26.672Z,21.50
2024-05-09T18:11:50.754Z,21.45
2024-05-09T18:15:15.265Z,21.33
2024-05-09T18:18:37.290Z,21.23
2024-05-09T18:21:59.164Z,21.00
2024-05-09T18:25:21.056Z,20.82
2024-05-09T18:28:43.107Z,20.67
2024-05-09T18:32:05.267Z,20.52
2024-05-09T18:35:27.006Z,20.37
2024-05-09T18:38:49.632Z,20.06
2024-05-09T18:42:11.456Z,19.99
2024-05-09T18:45:33.331Z,19.87
2024-05-09T18:48:55.297Z,19.59
2024-05-09T18:52:20.103Z,19.34
2024-05-09T18:55:44.403Z,19.44
2024-05-09T18:59:08.670Z,19.31
2024-05-09T19:02:32.969Z,19.11
2024-05-09T19:05:55.134Z,18.90
2024-05-09T19:09:16.863Z,18.51
2024-05-09T19:12:41.107Z,18.49
2024-05-09T19:16:03.401Z,18.56
2024-05-09T19:19:25.497Z,18.42
2024-05-09T19:22:52.201Z,18.52
2024-05-09T19:26:14.411Z,18.44
2024-05-09T19:29:36.118Z,18.30
2024-05-09T19:33:00.259Z,18.17
2024-05-09T19:36:22.130Z,18.11
2024-05-09T19:39:44.579Z,18.31
2024-05-09T19:43:07.045Z,18.10
2024-05-09T19:46:29.592Z,18.11
2024-05-09T19:49:53.676Z,18.35
2024-05-09T19:53:17.650Z,18.52
2024-05-09T19:56:44.578Z,18.52
2024-05-09T20:00:12.101Z,18.41
2024-05-09T20:03:37.409Z,18.24
2024-05-09T20:07:01.999Z,17.90
2024-05-09T20:10:26.816Z,17.80
2024-05-09T20:13:53.547Z,17.65
2024-05-09T20:17:15.275Z,17.61
2024-05-09T20:20:41.204Z,17.55
2024-05-09T20:24:04.997Z,17.36
2024-05-09T20:27:29.248Z,17.31
2024-05-09T20:30:51.057Z,17.18
2024-05-09T20:34:12.882Z,17.18
2024-05-09T20:37:34.738Z,17.18
2024-05-09T20:40:56.764Z,17.19
2024-05-09T20:44:18.751Z,17.14
2024-05-09T20:47:40.819Z,17.19
2024-05-09T20:51:04.759Z,17.25
2024-05-09T20:54:26.511Z,17.28
2024-05-09T20:57:48.270Z,17.19
2024-05-09T21:01:12.448Z,17.18
2024-05-09T21:04:34.352Z,17.22
2024-05-09T21:07:56.637Z,17.08
2024-05-09T21:11:22.776Z,17.10
2024-05-09T21:14:44.542Z,16.95
2024-05-09T21:18:11.080Z,17.03
2024-05-09T21:21:41.635Z,16.98
2024-05-09T21:25:05.783Z,17.01
2024-05-09T21:28:27.661Z,16.88
2024-05-09T21:31:52.034Z,16.87
2024-05-09T21:35:16.725Z,16.88
2024-05-09T21:38:41.241Z,16.87
2024-05-09T21:42:03.059Z,16.80
2024-05-09T21:45:24.777Z,16.81
2024-05-09T21:48:46.790Z,16.81
2024-05-09T21:52:13.549Z,16.77
2024-05-09T21:55:35.425Z,16.67
2024-05-09T21:59:01.988Z,16.59
2024-05-09T22:02:23.889Z,16.33
2024-05-09T22:05:45.719Z,16.21
2024-05-09T22:09:10.560Z,16.11
2024-05-09T22:12:32.304Z,16.06
2024-05-09T22:15:59.053Z,15.88
2024-05-09T22:19:21.157Z,15.97
2024-05-09T22:22:45.917Z,16.06
2024-05-09T22:26:09.947Z,15.93
2024-05-09T22:29:31.756Z,15.87
2024-05-09T22:32:53.574Z,15.74
2024-05-09T22:36:15.340Z,15.77
2024-05-09T22:39:40.585Z,15.47
2024-05-09T22:43:03.025Z,15.33
2024-05-09T22:46:24.907Z,15.37
2024-05-09T22:49:52.193Z,15.49
2024-05-09T22:53:16.420Z,15.46
2024-05-09T22:56:38.196Z,15.51
2024-05-09T22:59:59.918Z,15.36
2024-05-09T23:03:24.423Z,15.09
2024-05-09T23:06:48.456Z,14.74
2024-05-09T23:10:17.138Z,14.72
2024-05-09T23:13:43.363Z,14.82
2024-05-09T23:17:07.379Z,14.88
2024-05-09T23:20:36.368Z,14.91
2024-05-09T23:24:03.370Z,14.87
2024-05-09T23:27:27.411Z,14.91
2024-05-09T23:30:51.723Z,15.00
2024-05-09T23:34:16.166Z,15.12
2024-05-09T23:37:40.771Z,15.22
2024-05-09T23:41:02.623Z,15.26
2024-05-09T23:44:24.420Z,15.25
2024-05-09T23:47:49.094Z,15.23
2024-05-09T23:51:11.563Z,15.19
2024-05-09T23:54:33.377Z,15.13
2024-05-09T23:57:55.584Z,15.09
